Archival Weather

Sydney Intl

Sydney, Australia (YSSY)

Report from: Sunday, March 19, 2023 5:00 PM AEDT
Current time: Tuesday, February 27, 2024 10:03 PM AEDT

Current weather – Weather history – Daily summaries
Weather forecast

Temperature31.0°C (87.8°F)
Heat index31.0°C (87.8°F)
Dew point16.0°C (60.8°F)
Winds 7 kts (3.6 m/s, 8.1 mph) East-Southeast (120°)
Clouds Sky clear
Altimeter29.97 in.Hg (1015 mB)
Relative humidity41 %
Density altitude2,022 ft. (616 m)
Remarks Ceiling and visibility OK
Flight conditions Visual Meteorological Conditions
Raw dataYSSY 190600Z 12007KT CAVOK 31/16 Q1015
An error has occurred. This application may no longer respond until reloaded. Reload 🗙